BDL weather

Bradley International Airport
Hartford, Connecticut, United States

Public forecast

Using degrees Fahrenheit for public forecast. Weather courtesy of forecast.io.

METAR (pilot weather report)

Retrieved 2019/04/21 20:51 UTC (55 minutes ago):

KBDL 212051Z 20009KT 10SM FEW018 BKN022 OVC060 17/12 A3003 RMK AO2 SLP170 T01720117 53000

TAF (pilot weather forecast)

Forecast is more than 6 hours old.

Retrieved 2019/04/21 12:30 UTC (9 hours ago):

TAF KBDL 211129Z 2112/2218 12003KT P6SM VCSH BKN070 FM211400 15004KT P6SM VCSH OVC090 FM211700 17006KT P6SM BKN070 FM220100 20004KT P6SM BKN150 FM221100 36003KT P6SM BKN150 FM221500 02006KT P6SM VCSH BKN090